Time;durP1;ratioP1;P1;durP2;ratioP2;P2;SDS_P1;SDS_P2;PMS_P1;PMS_P2;Temp;Humidity;BMP_temperature;BMP_pressure;BME280_temperature;BME280_humidity;BME280_pressure;Samples;Min_cycle;Max_cycle;Signal;HPM_P1;HPM_P2
2022/04/10 00:01:30;;;;;;;16.98;9.23;;;;;;;3.56;69.98;101754.97;5071606;28;20071;-68
2022/04/10 00:03:59;;;;;;;13.98;8.75;;;;;;;3.64;70.11;101747.81;5085879;28;20039;-68
2022/04/10 00:06:25;;;;;;;15.63;9.07;;;;;;;3.68;70.14;101753.88;5068628;28;20391;-68
2022/04/10 00:08:51;;;;;;;9.77;8.50;;;;;;;3.63;70.78;101746.09;5077703;28;20024;-68
2022/04/10 00:11:17;;;;;;;9.75;8.40;;;;;;;3.65;70.76;101752.19;5071407;28;20021;-68
2022/04/10 00:13:48;;;;;;;16.60;8.95;;;;;;;3.60;70.56;101741.75;5074886;28;20107;-68
2022/04/10 00:16:14;;;;;;;12.93;8.73;;;;;;;3.62;70.47;101745.22;5077668;28;20099;-68
2022/04/10 00:18:42;;;;;;;16.42;9.07;;;;;;;3.66;70.88;101750.44;5082989;28;20548;-68
2022/04/10 00:21:07;;;;;;;13.73;9.18;;;;;;;3.60;70.60;101741.75;5071357;28;20039;-68
2022/04/10 00:23:33;;;;;;;17.95;9.98;;;;;;;3.62;71.13;101741.72;5071610;28;20441;-68
2022/04/10 00:26:01;;;;;;;17.30;9.05;;;;;;;3.59;71.23;101755.81;5071858;28;20081;-68
2022/04/10 00:28:26;;;;;;;15.48;9.73;;;;;;;3.58;70.62;101748.78;5087050;28;20372;-68
2022/04/10 00:30:52;;;;;;;15.38;9.57;;;;;;;3.53;70.88;101749.78;5071534;28;20046;-68
2022/04/10 00:33:17;;;;;;;17.25;10.10;;;;;;;3.48;71.08;101754.28;5070464;28;20433;-68
2022/04/10 00:35:42;;;;;;;18.20;9.75;;;;;;;3.47;71.00;101749.91;5070339;28;20059;-68
2022/04/10 00:38:10;;;;;;;15.48;9.27;;;;;;;3.46;71.51;101748.19;5064125;28;20113;-68
2022/04/10 00:40:37;;;;;;;14.50;9.77;;;;;;;3.51;71.21;101747.19;5076907;28;20029;-68
2022/04/10 00:43:02;;;;;;;17.73;10.45;;;;;;;3.43;71.48;101746.47;5070564;28;20028;-68
2022/04/10 00:45:28;;;;;;;15.07;9.98;;;;;;;3.45;70.73;101739.44;5056150;28;20119;-68
2022/04/10 00:47:54;;;;;;;16.15;10.27;;;;;;;3.31;71.64;101747.56;5071112;28;20023;-68
2022/04/10 00:50:20;;;;;;;12.65;9.85;;;;;;;3.34;71.74;101746.66;5036697;28;20021;-68
2022/04/10 00:52:47;;;;;;;15.63;10.48;;;;;;;3.35;72.04;101743.09;5070686;28;20059;-69
2022/04/10 00:55:14;;;;;;;16.83;11.18;;;;;;;3.34;72.25;101738.75;5073695;28;20096;-68
2022/04/10 00:57:40;;;;;;;14.02;10.57;;;;;;;3.31;71.61;101744.06;5077301;28;20475;-68
2022/04/10 01:00:10;;;;;;;20.50;10.40;;;;;;;3.24;72.69;101743.31;5077216;28;20058;-68
2022/04/10 01:02:37;;;;;;;17.15;11.32;;;;;;;3.17;72.50;101737.28;5089772;28;20048;-68
2022/04/10 01:05:04;;;;;;;17.25;11.10;;;;;;;3.15;72.09;101735.63;5073204;28;20055;-68
2022/04/10 01:07:30;;;;;;;17.67;10.93;;;;;;;3.19;72.18;101734.66;5070544;28;20090;-68
2022/04/10 01:10:00;;;;;;;14.75;10.20;;;;;;;3.04;72.54;101724.41;5071078;28;20012;-68
2022/04/10 01:12:30;;;;;;;15.55;10.75;;;;;;;3.15;72.21;101746.13;5074441;28;20032;-67
2022/04/10 01:14:55;;;;;;;16.77;11.85;;;;;;;3.18;73.20;101735.56;5080547;28;20016;-68
2022/04/10 01:17:23;;;;;;;16.55;11.23;;;;;;;3.17;72.79;101733.81;5070363;28;20069;-68
2022/04/10 01:19:53;;;;;;;19.38;11.48;;;;;;;3.24;73.21;101739.84;5081164;28;20029;-68
2022/04/10 01:22:32;;;;;;;16.50;11.32;;;;;;;3.32;72.59;101733.50;5072659;28;20098;-68
2022/04/10 01:25:01;;;;;;;19.98;12.38;;;;;;;3.29;72.90;101730.09;5086665;28;20020;-68
2022/04/10 01:27:27;;;;;;;15.55;11.23;;;;;;;3.38;72.86;101743.06;5071378;28;20058;-68
2022/04/10 01:29:53;;;;;;;17.60;11.13;;;;;;;3.44;73.00;101744.69;5053812;28;20196;-68
2022/04/10 01:32:18;;;;;;;16.30;11.48;;;;;;;3.35;73.35;101730.84;5053163;28;20043;-68
2022/04/10 01:34:43;;;;;;;20.67;12.57;;;;;;;3.45;73.33;101749.09;5056841;28;20124;-68
2022/04/10 01:37:10;;;;;;;19.70;11.73;;;;;;;3.41;73.08;101748.25;5071632;28;20029;-68
2022/04/10 01:39:36;;;;;;;15.93;10.95;;;;;;;3.44;73.52;101736.81;5070310;28;20029;-68
2022/04/10 01:42:02;;;;;;;16.27;11.82;;;;;;;3.42;73.49;101742.97;5075048;28;20051;-68
2022/04/10 01:44:28;;;;;;;19.63;11.80;;;;;;;3.47;73.18;101742.00;5070277;28;20488;-68
2022/04/10 01:46:54;;;;;;;17.42;12.05;;;;;;;3.51;73.40;101747.19;5057826;28;20027;-68
2022/04/10 01:49:19;;;;;;;15.55;11.18;;;;;;;3.50;72.99;101745.47;5070712;28;20028;-68
2022/04/10 01:51:45;;;;;;;16.85;11.88;;;;;;;3.49;72.83;101756.00;5082543;28;20107;-68
2022/04/10 01:54:10;;;;;;;17.77;11.77;;;;;;;3.47;72.70;101750.78;5084178;28;20245;-68
2022/04/10 01:56:36;;;;;;;15.90;12.05;;;;;;;3.44;72.91;101750.81;5052961;28;20072;-68
2022/04/10 01:59:02;;;;;;;18.80;12.18;;;;;;;3.42;73.12;101760.53;5052582;28;20119;-68
2022/04/10 02:01:27;;;;;;;16.45;11.85;;;;;;;3.42;72.85;101761.38;5068976;28;20655;-68
2022/04/10 02:03:55;;;;;;;16.85;11.75;;;;;;;3.31;73.27;101767.72;5077458;28;20074;-68
2022/04/10 02:06:23;;;;;;;17.48;12.55;;;;;;;3.33;73.26;101763.31;5071779;28;20032;-68
2022/04/10 02:08:49;;;;;;;21.00;12.25;;;;;;;3.25;72.72;101760.81;5069251;28;20086;-68
2022/04/10 02:11:18;;;;;;;18.35;12.35;;;;;;;3.17;72.97;101766.19;5070703;28;20028;-68
2022/04/10 02:13:45;;;;;;;18.77;12.63;;;;;;;3.16;73.56;101756.59;5072028;28;20501;-68
2022/04/10 02:16:18;;;;;;;18.50;11.68;;;;;;;3.09;73.30;101752.34;5070941;28;20056;-68
2022/04/10 02:18:46;;;;;;;19.70;12.13;;;;;;;3.15;73.09;101759.28;5068831;28;20435;-68
2022/04/10 02:21:11;;;;;;;19.35;12.18;;;;;;;3.12;72.99;101757.56;5072402;28;20085;-68
2022/04/10 02:23:39;;;;;;;19.42;12.38;;;;;;;3.14;73.19;101760.13;5087887;28;20024;-68
2022/04/10 02:26:05;;;;;;;22.40;12.90;;;;;;;3.13;73.01;101758.41;5090353;28;20032;-68
2022/04/10 02:28:30;;;;;;;18.23;12.55;;;;;;;2.96;73.30;101763.94;5087089;28;20592;-68
2022/04/10 02:30:56;;;;;;;16.30;11.85;;;;;;;2.98;73.27;101756.91;5083235;28;20025;-68
2022/04/10 02:33:22;;;;;;;17.52;12.23;;;;;;;2.96;73.06;101763.94;5052361;28;20040;-68
2022/04/10 02:35:48;;;;;;;14.38;12.20;;;;;;;2.88;73.27;101764.09;5088875;28;20032;-68
2022/04/10 02:38:13;;;;;;;16.05;12.50;;;;;;;2.83;73.19;101758.03;5088791;28;20483;-67
2022/04/10 02:40:38;;;;;;;17.55;12.40;;;;;;;2.83;73.11;101762.44;5070900;28;20119;-68
2022/04/10 02:43:04;;;;;;;16.67;12.20;;;;;;;2.84;73.19;101767.66;5074780;28;20593;-68
2022/04/10 02:45:30;;;;;;;17.52;12.32;;;;;;;2.79;73.39;101772.09;5092171;28;20031;-68
2022/04/10 02:47:56;;;;;;;16.65;12.35;;;;;;;2.73;73.01;101773.06;5094157;28;20434;-68
2022/04/10 02:50:24;;;;;;;16.17;13.00;;;;;;;2.65;73.23;101777.59;5084540;28;20052;-68
2022/04/10 02:52:51;;;;;;;18.38;12.70;;;;;;;2.63;72.97;101771.47;5073256;28;20491;-68
2022/04/10 02:55:17;;;;;;;14.02;12.00;;;;;;;2.63;73.27;101776.75;5077448;28;20058;-68
2022/04/10 02:57:43;;;;;;;14.55;12.05;;;;;;;2.62;73.42;101784.66;5094042;28;20059;-68
2022/04/10 03:00:10;;;;;;;17.45;13.23;;;;;;;2.64;73.02;101783.72;5074416;28;20516;-68
2022/04/10 03:02:39;;;;;;;18.02;12.20;;;;;;;2.63;73.14;101779.38;5080326;28;20470;-68
2022/04/10 03:05:07;;;;;;;16.45;12.70;;;;;;;2.60;73.07;101779.41;5076758;28;20453;-68
2022/04/10 03:07:33;;;;;;;19.02;12.48;;;;;;;2.53;73.40;101782.13;5074108;28;20080;-68
2022/04/10 03:09:59;;;;;;;16.20;12.38;;;;;;;2.50;73.52;101780.44;5072928;28;20138;-68
2022/04/10 03:12:24;;;;;;;17.25;12.63;;;;;;;2.44;73.48;101780.50;5055227;28;20060;-68
2022/04/10 03:14:49;;;;;;;20.33;12.43;;;;;;;2.52;73.20;101783.03;5053588;28;20029;-68
2022/04/10 03:17:15;;;;;;;19.63;12.93;;;;;;;2.43;73.07;101779.66;5054291;28;20032;-69
2022/04/10 03:19:41;;;;;;;17.48;12.30;;;;;;;2.50;73.28;101788.34;5074142;28;20241;-68
2022/04/10 03:22:07;;;;;;;18.00;12.75;;;;;;;2.44;73.39;101781.41;5070925;28;20032;-68
2022/04/10 03:24:32;;;;;;;17.02;12.07;;;;;;;2.36;73.21;101771.91;5075669;28;20036;-68
2022/04/10 03:26:58;;;;;;;16.40;12.75;;;;;;;2.39;73.42;101783.22;5072766;28;20445;-68
2022/04/10 03:29:24;;;;;;;18.45;12.13;;;;;;;2.37;73.35;101786.75;5072225;28;20484;-68
2022/04/10 03:31:49;;;;;;;23.02;12.05;;;;;;;2.36;73.72;101795.53;5048286;28;20388;-68
2022/04/10 03:34:14;;;;;;;20.48;12.40;;;;;;;2.34;73.30;101792.03;5073854;28;20028;-68
2022/04/10 03:36:40;;;;;;;16.10;12.43;;;;;;;2.27;73.60;101794.75;5086147;28;20482;-68
2022/04/10 03:39:06;;;;;;;16.92;11.93;;;;;;;2.22;73.94;101800.94;5078271;28;20031;-69
2022/04/10 03:41:36;;;;;;;17.55;13.00;;;;;;;2.21;73.97;101797.47;5075382;28;20174;-68
2022/04/10 03:44:03;;;;;;;18.23;12.35;;;;;;;2.22;73.93;101796.56;5089000;28;20028;-68
2022/04/10 03:46:28;;;;;;;19.30;12.65;;;;;;;2.19;74.37;101806.25;5077862;28;20032;-68
2022/04/10 03:48:53;;;;;;;19.85;12.38;;;;;;;2.18;74.45;101804.53;5070993;28;20395;-68
2022/04/10 03:51:19;;;;;;;18.60;12.82;;;;;;;2.15;74.30;101810.66;5071478;28;20059;-68
2022/04/10 03:53:45;;;;;;;18.67;12.43;;;;;;;2.05;74.54;101798.53;5080827;28;20042;-68
2022/04/10 03:56:13;;;;;;;16.65;12.95;;;;;;;2.11;74.10;101810.72;5071847;28;20032;-68
2022/04/10 03:58:38;;;;;;;24.20;14.27;;;;;;;1.97;74.91;101798.66;5076159;28;20198;-68
2022/04/10 04:01:06;;;;;;;15.77;12.77;;;;;;;1.92;74.86;101807.47;5071889;28;20662;-68
2022/04/10 04:03:33;;;;;;;18.08;12.35;;;;;;;1.90;74.90;101806.59;5070623;28;20059;-68
2022/04/10 04:05:59;;;;;;;18.27;12.27;;;;;;;1.91;75.25;101801.34;5071244;28;20429;-68
2022/04/10 04:08:25;;;;;;;15.13;12.50;;;;;;;1.91;75.25;101806.59;5053591;28;20041;-68
2022/04/10 04:10:50;;;;;;;18.75;12.73;;;;;;;1.84;75.20;101810.16;5054493;28;20031;-68
2022/04/10 04:13:16;;;;;;;14.95;11.35;;;;;;;1.84;75.51;101801.44;5076091;28;20071;-68
2022/04/10 04:15:41;;;;;;;13.88;12.27;;;;;;;1.84;75.17;101809.28;5077817;28;20058;-68
2022/04/10 04:18:09;;;;;;;18.55;11.75;;;;;;;1.84;75.62;101811.91;5063293;28;20024;-68
2022/04/10 04:20:34;;;;;;;13.55;11.27;;;;;;;1.77;75.71;101816.38;5086007;28;20047;-68
2022/04/10 04:23:00;;;;;;;21.90;12.57;;;;;;;1.76;75.52;101814.63;5079178;28;20032;-68
2022/04/10 04:25:26;;;;;;;14.75;11.18;;;;;;;1.84;75.59;101825.03;5073132;28;20186;-68
2022/04/10 04:27:52;;;;;;;14.80;11.55;;;;;;;1.83;75.55;101816.28;5071184;28;20039;-68
2022/04/10 04:30:18;;;;;;;16.92;11.63;;;;;;;1.83;75.57;101816.28;5084148;28;20387;-68
2022/04/10 04:32:44;;;;;;;18.48;11.32;;;;;;;1.84;75.74;101817.16;5084139;28;20028;-68
2022/04/10 04:35:12;;;;;;;19.90;11.98;;;;;;;1.76;75.79;101815.47;5075563;28;20394;-68
2022/04/10 04:37:40;;;;;;;15.52;12.00;;;;;;;1.80;76.31;101817.19;5073661;28;20040;-68
2022/04/10 04:40:09;;;;;;;18.47;11.40;;;;;;;1.81;76.01;101823.31;5070631;28;20093;-68
2022/04/10 04:42:35;;;;;;;17.15;11.13;;;;;;;1.79;76.30;101817.19;5071474;28;20056;-68
2022/04/10 04:45:00;;;;;;;16.10;11.23;;;;;;;1.84;76.77;101822.41;5075478;28;20047;-68
2022/04/10 04:47:28;;;;;;;17.57;11.23;;;;;;;1.86;76.46;101824.13;5084740;28;20051;-68
2022/04/10 04:49:55;;;;;;;17.30;10.77;;;;;;;1.76;76.36;101820.72;5053313;28;20438;-68
2022/04/10 04:52:21;;;;;;;13.27;10.60;;;;;;;1.80;76.83;101819.81;5070961;28;20024;-68
2022/04/10 04:54:47;;;;;;;13.73;10.95;;;;;;;1.86;76.69;101824.13;5069870;28;20090;-68
2022/04/10 04:57:12;;;;;;;13.27;9.80;;;;;;;1.90;76.40;101825.81;5070933;28;20024;-68
2022/04/10 04:59:38;;;;;;;16.23;10.57;;;;;;;1.83;76.69;101831.19;5061879;28;20025;-68
2022/04/10 05:02:06;;;;;;;14.85;10.57;;;;;;;1.80;76.79;101832.06;5069777;28;20511;-68
2022/04/10 05:04:32;;;;;;;16.13;11.50;;;;;;;1.79;76.76;101830.31;5070720;28;20028;-68
2022/04/10 05:07:00;;;;;;;15.88;11.88;;;;;;;1.73;77.28;101836.50;5076208;28;20028;-68
2022/04/10 05:09:28;;;;;;;11.60;10.40;;;;;;;1.75;77.31;101837.34;5088741;28;20039;-68
2022/04/10 05:11:54;;;;;;;15.13;11.23;;;;;;;1.80;77.30;101839.94;5086306;28;20471;-68
2022/04/10 05:14:19;;;;;;;15.98;10.15;;;;;;;1.79;76.88;101846.03;5090128;28;20032;-68
2022/04/10 05:16:45;;;;;;;13.85;10.48;;;;;;;1.75;77.35;101849.59;5089154;28;20027;-68
2022/04/10 05:19:14;;;;;;;14.57;10.30;;;;;;;1.77;77.49;101847.84;5052922;28;20024;-68
2022/04/10 05:21:40;;;;;;;12.57;11.13;;;;;;;1.80;77.13;101855.66;5080472;28;20028;-68
2022/04/10 05:24:07;;;;;;;14.80;10.57;;;;;;;1.80;77.41;101858.28;5070804;28;20024;-68
2022/04/10 05:26:35;;;;;;;19.80;11.48;;;;;;;1.80;77.77;101853.06;5052364;28;20119;-68
2022/04/10 05:29:01;;;;;;;12.98;10.57;;;;;;;1.76;77.47;101849.56;5070857;28;20063;-68
2022/04/10 05:31:26;;;;;;;14.73;10.65;;;;;;;1.87;77.53;101859.09;5069368;28;20016;-68
2022/04/10 05:33:52;;;;;;;13.63;10.60;;;;;;;1.79;78.10;101862.69;5069075;28;20073;-68
2022/04/10 05:36:17;;;;;;;16.48;10.30;;;;;;;1.87;78.66;101873.06;5052498;28;20028;-68
2022/04/10 05:38:45;;;;;;;14.07;10.82;;;;;;;1.91;78.36;101868.66;5070517;28;20028;-68
2022/04/10 05:41:11;;;;;;;15.87;10.67;;;;;;;1.99;78.07;101877.31;5060222;28;20733;-68
2022/04/10 05:43:37;;;;;;;12.52;10.13;;;;;;;2.01;78.29;101873.78;5076055;28;20032;-68
2022/04/10 05:46:03;;;;;;;13.52;10.13;;;;;;;2.06;78.69;101873.75;5071875;28;20043;-68
2022/04/10 05:48:31;;;;;;;14.13;10.32;;;;;;;2.12;79.21;101878.03;5071320;28;20103;-68
2022/04/10 05:50:59;;;;;;;14.93;10.45;;;;;;;2.15;78.78;101884.16;5068683;28;20029;-68
2022/04/10 05:53:24;;;;;;;17.65;11.00;;;;;;;2.17;79.23;101889.34;5070644;28;20105;-68
2022/04/10 05:55:50;;;;;;;19.48;11.50;;;;;;;2.30;79.40;101887.47;5075420;28;20538;-68
2022/04/10 05:58:15;;;;;;;16.25;10.90;;;;;;;2.35;79.40;101890.91;5069295;28;20039;-68
2022/04/10 06:00:41;;;;;;;18.60;11.50;;;;;;;2.45;79.43;101895.16;5078770;28;20112;-68
2022/04/10 06:03:09;;;;;;;17.52;10.50;;;;;;;2.51;79.52;101895.09;5090118;28;20052;-68
2022/04/10 06:05:34;;;;;;;16.30;11.20;;;;;;;2.56;79.84;101903.78;5084222;28;20492;-68
2022/04/10 06:08:00;;;;;;;18.30;11.15;;;;;;;2.70;79.12;101906.19;5084821;28;20061;-68
2022/04/10 06:10:26;;;;;;;15.50;10.68;;;;;;;2.79;79.24;101908.69;5089391;28;20422;-68
2022/04/10 06:12:51;;;;;;;13.75;11.32;;;;;;;2.83;79.61;101899.91;5090456;28;20114;-68
2022/04/10 06:15:20;;;;;;;15.90;11.25;;;;;;;2.86;79.17;101906.88;5080910;28;20107;-68
2022/04/10 06:17:49;;;;;;;18.42;11.90;;;;;;;3.00;79.48;101911.91;5072976;28;20035;-68
2022/04/10 06:20:15;;;;;;;17.08;10.80;;;;;;;3.11;79.35;101923.16;5078133;28;20028;-68
2022/04/10 06:22:41;;;;;;;22.65;12.52;;;;;;;3.18;79.45;101930.06;5073917;28;20052;-68
2022/04/10 06:25:09;;;;;;;21.25;12.45;;;;;;;3.22;79.85;101923.84;5055759;28;20391;-68
2022/04/10 06:27:38;;;;;;;17.92;11.35;;;;;;;3.42;79.04;101934.94;5071887;28;20487;-68
2022/04/10 06:30:05;;;;;;;17.98;11.70;;;;;;;3.54;79.21;101940.91;5073274;28;20055;-68
2022/04/10 06:32:30;;;;;;;19.35;11.38;;;;;;;3.65;78.27;101944.22;5055034;28;20029;-68
2022/04/10 06:34:56;;;;;;;14.82;11.43;;;;;;;3.78;78.89;101943.09;5056472;28;20029;-68
2022/04/10 06:37:22;;;;;;;16.92;11.70;;;;;;;3.91;78.54;101943.75;5067580;28;20034;-68
2022/04/10 06:39:48;;;;;;;15.85;11.70;;;;;;;4.06;78.38;101947.91;5055697;28;20029;-68
2022/04/10 06:42:14;;;;;;;17.45;11.30;;;;;;;4.16;78.03;101956.47;5072751;28;20044;-68
2022/04/10 06:44:41;;;;;;;17.38;11.68;;;;;;;4.32;76.96;101943.00;5073055;28;20525;-68
2022/04/10 06:47:06;;;;;;;20.13;11.98;;;;;;;4.47;77.23;101940.94;5073405;28;20464;-68
2022/04/10 06:49:32;;;;;;;19.25;13.10;;;;;;;4.70;77.58;101949.25;5063024;28;20046;-68
2022/04/10 06:51:58;;;;;;;21.20;11.70;;;;;;;4.90;76.74;101948.81;5089623;28;20073;-68
2022/04/10 06:54:23;;;;;;;16.58;10.18;;;;;;;5.04;75.88;101950.31;5064726;28;20040;-68
2022/04/10 06:56:49;;;;;;;16.75;10.40;;;;;;;5.17;74.54;101949.13;5076369;28;20548;-68
2022/04/10 06:59:14;;;;;;;17.67;10.60;;;;;;;5.29;74.10;101948.81;5076514;28;20754;-68
2022/04/10 07:01:40;;;;;;;18.35;10.13;;;;;;;5.50;73.25;101954.50;5072567;28;20495;-68
2022/04/10 07:04:06;;;;;;;15.77;9.18;;;;;;;5.66;73.76;101964.66;5072129;28;20114;-68
2022/04/10 07:06:34;;;;;;;15.80;9.45;;;;;;;5.80;71.82;101968.72;5077452;28;20443;-68
2022/04/10 07:09:02;;;;;;;13.00;9.90;;;;;;;5.88;72.59;101967.63;5077032;28;20111;-69
2022/04/10 07:11:31;;;;;;;16.38;10.55;;;;;;;5.97;71.95;101970.94;5075238;28;20051;-68
2022/04/10 07:13:59;;;;;;;16.38;10.43;;;;;;;6.02;71.47;101964.66;5071392;28;20442;-68
2022/04/10 07:16:24;;;;;;;16.40;10.10;;;;;;;6.17;69.80;101973.94;5071316;28;20051;-68
2022/04/10 07:18:52;;;;;;;16.75;8.85;;;;;;;6.25;69.47;101965.81;5089732;28;20037;-68
2022/04/10 07:23:41;;;;;;;13.63;8.75;;;;;;;6.35;69.66;101968.19;5078692;28;20060;-68
2022/04/10 07:24:04;;;;;;;12.98;9.00;;;;;;;6.50;68.42;101973.94;5075878;28;20479;-68
2022/04/10 07:26:30;;;;;;;15.90;8.85;;;;;;;6.65;68.58;101977.91;5082343;28;20110;-68
2022/04/10 07:28:56;;;;;;;15.10;8.85;;;;;;;6.75;67.61;101977.63;5076861;28;20111;-68
2022/04/10 07:31:22;;;;;;;17.45;9.45;;;;;;;6.83;67.85;101970.34;5073921;28;20361;-68
2022/04/10 07:33:47;;;;;;;13.30;8.30;;;;;;;7.00;67.16;101975.13;5059125;28;20073;-69
2022/04/10 07:36:13;;;;;;;14.50;8.50;;;;;;;7.09;66.95;101973.09;5071625;28;20036;-69
2022/04/10 07:38:38;;;;;;;9.85;8.10;;;;;;;7.14;65.95;101977.34;5078357;28;20054;-69
2022/04/10 07:41:05;;;;;;;18.73;9.10;;;;;;;7.25;66.41;101977.88;5093486;28;20067;-69
2022/04/10 07:43:31;;;;;;;16.80;8.88;;;;;;;7.39;66.75;101985.41;5054823;28;20086;-69
2022/04/10 07:48:42;;;;;;;10.52;8.25;;;;;;;7.72;65.58;101988.72;5080207;28;20403;-69
2022/04/10 07:51:08;;;;;;;18.85;8.10;;;;;;;7.85;63.86;101999.81;5078808;28;20397;-69
2022/04/10 07:53:34;;;;;;;13.02;7.80;;;;;;;8.04;64.25;102004.47;5090743;28;20111;-69
2022/04/10 07:56:00;;;;;;;14.40;7.40;;;;;;;8.14;63.59;102008.53;5059595;28;20479;-68
2022/04/10 07:58:26;;;;;;;16.75;8.50;;;;;;;8.20;63.42;102000.38;5076379;28;20031;-69
2022/04/10 08:00:52;;;;;;;14.38;8.23;;;;;;;8.34;62.81;102014.00;5077260;28;20036;-69
2022/04/10 08:03:17;;;;;;;11.40;5.82;;;;;;;8.44;60.22;102014.56;5072839;28;20087;-69
2022/04/10 08:05:43;;;;;;;11.80;6.05;;;;;;;8.56;61.10;102018.59;5068979;28;20055;-69
2022/04/10 08:08:10;;;;;;;11.55;6.03;;;;;;;8.65;58.69;102026.22;5053636;28;20059;-69
2022/04/10 08:10:37;;;;;;;7.28;4.68;;;;;;;8.56;59.55;102023.88;5077040;28;20118;-67
2022/04/10 08:13:02;;;;;;;9.18;5.93;;;;;;;8.70;59.93;102034.00;5070719;28;20158;-67
2022/04/10 08:15:28;;;;;;;8.52;5.82;;;;;;;8.77;58.52;102032.88;5070451;28;20127;-65
2022/04/10 08:17:56;;;;;;;8.77;6.03;;;;;;;8.78;58.25;102030.16;5077534;28;20031;-66
2022/04/10 08:20:22;;;;;;;11.23;5.93;;;;;;;8.90;57.93;102034.16;5074612;28;20480;-66
2022/04/10 08:22:49;;;;;;;13.45;6.47;;;;;;;9.06;58.88;102047.72;5070027;28;20032;-66
2022/04/10 08:25:16;;;;;;;9.57;5.18;;;;;;;9.15;57.27;102041.19;5069946;28;20032;-68
2022/04/10 08:27:42;;;;;;;11.07;4.93;;;;;;;9.36;56.60;102028.91;5071254;28;20425;-69
2022/04/10 08:30:09;;;;;;;5.72;4.50;;;;;;;9.42;56.32;102026.84;5078788;28;20035;-69
2022/04/10 08:32:42;;;;;;;14.57;5.50;;;;;;;9.70;57.73;102025.75;5071442;28;20024;-69
2022/04/10 08:35:08;;;;;;;9.18;4.25;;;;;;;9.70;54.19;102029.25;5069453;28;20546;-69
2022/04/10 08:37:35;;;;;;;11.23;4.35;;;;;;;9.89;54.46;102025.88;5070815;28;20491;-69
2022/04/10 08:40:00;;;;;;;9.48;4.00;;;;;;;10.19;53.38;102029.03;5069387;28;20056;-70
2022/04/10 08:42:26;;;;;;;9.90;3.28;;;;;;;10.09;50.44;102040.97;5075731;28;20459;-69
2022/04/10 08:44:55;;;;;;;9.43;3.65;;;;;;;9.70;51.18;102039.88;5079089;28;20039;-69
2022/04/10 08:47:21;;;;;;;7.30;3.50;;;;;;;9.55;52.88;102044.03;5073129;28;20526;-69
2022/04/10 08:49:50;;;;;;;7.40;3.30;;;;;;;9.32;52.24;102044.94;5071615;28;20115;-69
2022/04/10 08:52:17;;;;;;;7.90;3.60;;;;;;;9.25;53.82;102062.00;5072049;28;20098;-69
2022/04/10 08:54:44;;;;;;;6.57;3.55;;;;;;;9.10;52.21;102042.22;5073298;28;20445;-69
2022/04/10 08:57:10;;;;;;;9.75;3.05;;;;;;;9.08;51.95;102059.13;5069764;28;20119;-69
2022/04/10 08:59:38;;;;;;;5.63;3.30;;;;;;;9.04;52.88;102061.03;5086245;28;20163;-69
2022/04/10 09:02:04;;;;;;;10.55;3.67;;;;;;;8.98;53.79;102060.41;5074668;28;20059;-68
2022/04/10 09:04:31;;;;;;;9.85;4.43;;;;;;;8.86;56.47;102056.41;5070270;28;20038;-70
2022/04/10 09:07:03;;;;;;;9.75;4.63;;;;;;;8.83;57.47;102056.53;5069174;28;20037;-70
2022/04/10 09:09:31;;;;;;;12.98;4.80;;;;;;;8.72;57.04;102064.88;5070727;28;20029;-69
2022/04/10 09:11:58;;;;;;;9.13;4.75;;;;;;;8.84;56.94;102072.38;5068941;28;20123;-69
2022/04/10 09:14:27;;;;;;;6.47;4.55;;;;;;;9.00;57.16;102071.81;5070834;28;20032;-69
2022/04/10 09:17:10;;;;;;;10.10;4.60;;;;;;;9.19;57.83;102072.00;5081005;28;20110;-70
2022/04/10 09:19:37;;;;;;;8.85;4.47;;;;;;;9.39;57.89;102066.81;5070953;28;20499;-69
2022/04/10 09:22:28;;;;;;;9.93;3.90;;;;;;;9.58;56.42;102064.28;5075118;28;20044;-69
2022/04/10 09:25:08;;;;;;;9.63;4.22;;;;;;;9.45;55.73;102068.38;5068460;28;20051;-69
2022/04/10 09:27:50;;;;;;;10.32;5.00;;;;;;;9.36;55.61;102066.94;5068643;28;20115;-70
2022/04/10 09:30:17;;;;;;;10.02;4.75;;;;;;;9.64;54.35;102060.53;5068014;28;20054;-70
2022/04/10 09:32:47;;;;;;;10.38;5.00;;;;;;;9.95;54.16;102058.38;5078017;28;20020;-70
2022/04/10 09:35:24;;;;;;;8.05;4.03;;;;;;;10.31;54.07;102064.91;5079860;28;20036;-70
2022/04/10 09:37:54;;;;;;;11.15;3.97;;;;;;;10.56;52.14;102060.28;5070537;28;20020;-69
2022/04/10 09:40:23;;;;;;;8.00;3.83;;;;;;;10.81;50.63;102057.38;5071025;28;20074;-70
2022/04/10 09:42:59;;;;;;;7.93;3.58;;;;;;;11.02;50.33;102050.22;5070131;28;20032;-70
2022/04/10 09:45:39;;;;;;;10.20;3.83;;;;;;;10.97;49.32;102054.91;5053273;28;20020;-70
2022/04/10 09:48:27;;;;;;;10.93;3.20;;;;;;;10.87;48.57;102056.25;5069498;28;20506;-70
2022/04/10 09:50:58;;;;;;;13.07;3.80;;;;;;;10.80;47.82;102054.81;5070727;28;20564;-70
2022/04/10 09:53:26;;;;;;;7.20;3.60;;;;;;;11.06;47.25;102053.59;5082641;28;20020;-69
2022/04/10 09:56:00;;;;;;;7.38;3.42;;;;;;;11.30;46.51;102051.63;5074702;28;20089;-70
2022/04/10 09:58:26;;;;;;;9.20;3.17;;;;;;;11.56;46.07;102051.25;5074897;28;20075;-70
2022/04/10 10:00:56;;;;;;;4.97;2.85;;;;;;;11.59;44.59;102059.09;5078321;28;20491;-70
2022/04/10 10:03:26;;;;;;;7.70;3.42;;;;;;;11.85;44.80;102056.09;5075033;28;20499;-69
2022/04/10 10:05:57;;;;;;;5.47;2.65;;;;;;;11.97;43.19;102055.53;5074502;28;20095;-70
2022/04/10 10:08:25;;;;;;;6.13;3.42;;;;;;;12.15;42.85;102049.28;5095058;28;20063;-70
2022/04/10 10:10:53;;;;;;;7.32;2.90;;;;;;;12.23;41.02;102040.88;5089505;28;20055;-69
2022/04/10 10:13:26;;;;;;;7.93;3.15;;;;;;;12.15;40.67;102054.63;5083526;28;20040;-69
2022/04/10 10:15:52;;;;;;;6.50;2.80;;;;;;;12.36;42.08;102047.34;5094828;28;20016;-69
2022/04/10 10:18:18;;;;;;;7.75;3.13;;;;;;;12.67;41.86;102048.41;5095265;28;20030;-70
2022/04/10 10:20:44;;;;;;;7.80;2.80;;;;;;;12.98;41.65;102046.78;5060961;28;20017;-70
2022/04/10 10:23:16;;;;;;;10.55;2.92;;;;;;;12.95;41.11;102039.81;5073796;28;20480;-70
2022/04/10 10:25:47;;;;;;;8.73;3.08;;;;;;;13.18;40.27;102042.09;5073066;28;20028;-70
2022/04/10 10:28:44;;;;;;;6.20;3.03;;;;;;;13.44;41.09;102041.59;5074415;28;20036;-70
2022/04/10 10:31:19;;;;;;;6.75;2.92;;;;;;;13.45;41.33;102035.31;5074568;28;20028;-70
2022/04/10 10:33:51;;;;;;;6.88;2.88;;;;;;;13.27;39.63;102042.56;5074306;28;20032;-70
2022/04/10 10:36:27;;;;;;;5.38;2.63;;;;;;;12.99;39.62;102043.16;5073894;28;20024;-70
2022/04/10 10:38:57;;;;;;;6.03;2.63;;;;;;;12.95;41.10;102037.97;5072048;28;20467;-70
2022/04/10 10:41:23;;;;;;;8.93;3.05;;;;;;;12.95;40.48;102048.66;5093739;28;20027;-70
2022/04/10 10:43:49;;;;;;;6.57;3.00;;;;;;;13.03;39.60;102034.91;5094831;28;20395;-70
2022/04/10 10:46:28;;;;;;;8.48;3.00;;;;;;;12.96;40.49;102038.84;5094281;28;20038;-67
2022/04/10 10:49:22;;;;;;;9.63;3.28;;;;;;;13.19;41.16;102037.59;5076633;28;20106;-68
2022/04/10 10:51:49;;;;;;;5.10;2.78;;;;;;;13.51;40.50;102032.31;5072265;28;20081;-68
2022/04/10 10:54:20;;;;;;;6.70;2.70;;;;;;;13.57;39.25;102037.31;5072978;28;20157;-68
2022/04/10 10:56:46;;;;;;;6.05;2.80;;;;;;;13.80;40.47;102039.53;5081773;28;20510;-68
2022/04/10 10:59:35;;;;;;;7.97;3.13;;;;;;;14.05;39.58;102035.41;5071913;28;20083;-68
2022/04/10 11:02:10;;;;;;;5.95;2.58;;;;;;;14.27;37.97;102035.03;5088154;28;20035;-68
2022/04/10 11:04:45;;;;;;;8.25;2.72;;;;;;;14.52;37.69;102032.63;5094109;28;20035;-68
2022/04/10 11:07:12;;;;;;;5.57;2.65;;;;;;;14.80;36.00;102030.94;5089649;28;20047;-68
2022/04/10 11:10:09;;;;;;;6.03;2.22;;;;;;;15.11;37.38;102035.22;5055866;28;20485;-68
2022/04/10 11:12:59;;;;;;;6.25;2.78;;;;;;;15.57;37.71;102029.59;5071601;28;20024;-68
2022/04/10 11:15:30;;;;;;;7.35;2.53;;;;;;;15.54;35.13;102032.47;5073496;28;20093;-68
2022/04/10 11:18:01;;;;;;;5.63;2.45;;;;;;;15.48;33.00;102022.16;5073260;28;20028;-67
2022/04/10 11:20:27;;;;;;;5.85;2.35;;;;;;;15.47;34.57;102032.97;5074865;28;20493;-68
2022/04/10 11:22:53;;;;;;;4.18;2.50;;;;;;;15.15;34.80;102030.56;5087347;28;20064;-68
2022/04/10 11:25:34;;;;;;;6.60;3.00;;;;;;;14.53;35.17;102031.69;5093507;28;20024;-68
2022/04/10 11:28:02;;;;;;;7.82;2.80;;;;;;;14.06;37.14;102027.31;5081261;28;20024;-68